createdAt,value
2023-02-03T00:00:17.001Z,102051.50
2023-02-03T00:02:23.209Z,102054.16
2023-02-03T00:04:27.970Z,102058.53
2023-02-03T00:06:35.527Z,102070.03
2023-02-03T00:08:49.293Z,102065.69
2023-02-03T00:10:59.397Z,102071.84
2023-02-03T00:13:04.554Z,102072.75
2023-02-03T00:15:17.170Z,102069.19
2023-02-03T00:17:21.509Z,102067.41
2023-02-03T00:19:26.143Z,102062.91
2023-02-03T00:21:30.864Z,102069.13
2023-02-03T00:23:38.376Z,102065.56
2023-02-03T00:25:45.185Z,102078.72
2023-02-03T00:27:51.496Z,102066.34
2023-02-03T00:29:57.096Z,102065.44
2023-02-03T00:32:02.668Z,102068.91
2023-02-03T00:34:13.258Z,102065.44
2023-02-03T00:36:18.748Z,102067.16
2023-02-03T00:38:25.124Z,102060.06
2023-02-03T00:40:31.226Z,102056.56
2023-02-03T00:42:38.734Z,102063.59
2023-02-03T00:44:43.931Z,102054.75
2023-02-03T00:46:50.306Z,102065.44
2023-02-03T00:48:55.088Z,102055.69
2023-02-03T00:51:01.219Z,102052.25
2023-02-03T00:53:06.191Z,102051.41
2023-02-03T00:55:11.906Z,102057.56
2023-02-03T00:57:16.064Z,102065.50
2023-02-03T00:59:22.157Z,102071.63
2023-02-03T01:01:27.704Z,102070.72
2023-02-03T01:03:32.985Z,102063.69
2023-02-03T01:05:37.021Z,102076.94
2023-02-03T01:07:41.511Z,102070.72
2023-02-03T01:09:45.666Z,102073.38
2023-02-03T01:11:49.823Z,102074.28
2023-02-03T01:13:55.625Z,102081.31
2023-02-03T01:16:01.635Z,102080.47
2023-02-03T01:18:10.078Z,102089.31
2023-02-03T01:20:16.763Z,102099.06
2023-02-03T01:22:21.423Z,102092.03
2023-02-03T01:24:26.796Z,102100.91
2023-02-03T01:26:33.224Z,102101.81
2023-02-03T01:28:38.446Z,102121.31
2023-02-03T01:30:42.814Z,102108.91
2023-02-03T01:32:50.535Z,102115.19
2023-02-03T01:34:54.975Z,102115.31
2023-02-03T01:37:00.841Z,102125.09
2023-02-03T01:39:10.274Z,102125.31
2023-02-03T01:41:16.594Z,102116.66
2023-02-03T01:43:33.682Z,102123.88
2023-02-03T01:45:37.995Z,102123.22
2023-02-03T01:47:48.962Z,102115.38
2023-02-03T01:50:02.145Z,102120.72
2023-02-03T01:52:07.500Z,102120.78
2023-02-03T01:54:16.986Z,102127.06
2023-02-03T01:56:23.066Z,102126.28
2023-02-03T01:58:33.565Z,102138.69
2023-02-03T02:00:37.675Z,102124.66
2023-02-03T02:02:42.127Z,102130.81
2023-02-03T02:04:57.503Z,102127.38
2023-02-03T02:07:01.697Z,102131.78
2023-02-03T02:09:07.284Z,102131.84
2023-02-03T02:11:16.210Z,102134.50
2023-02-03T02:13:22.949Z,102124.84
2023-02-03T02:15:33.365Z,102139.00
2023-02-03T02:17:56.461Z,102130.19
2023-02-03T02:20:39.538Z,102144.31
2023-02-03T02:23:03.028Z,102144.38
2023-02-03T02:25:50.157Z,102147.03
2023-02-03T02:28:26.525Z,102147.84
2023-02-03T02:30:45.474Z,102142.63
2023-02-03T02:33:00.856Z,102146.97
2023-02-03T02:35:15.981Z,102150.44
2023-02-03T02:37:33.553Z,102153.09
2023-02-03T02:39:48.663Z,102162.81
2023-02-03T02:42:02.475Z,102157.53
2023-02-03T02:44:13.734Z,102156.66
2023-02-03T02:46:21.421Z,102156.66
2023-02-03T02:48:36.330Z,102161.09
2023-02-03T02:50:46.395Z,102163.72
2023-02-03T02:52:52.958Z,102163.72
2023-02-03T02:55:06.530Z,102163.66
2023-02-03T02:57:18.596Z,102172.47
2023-02-03T02:59:26.527Z,102166.25
2023-02-03T03:01:32.755Z,102173.28
2023-02-03T03:03:47.342Z,102167.00
2023-02-03T03:05:58.481Z,102166.88
2023-02-03T03:08:08.359Z,102158.03
2023-02-03T03:10:19.799Z,102158.81
2023-02-03T03:12:30.722Z,102164.94
2023-02-03T03:14:38.206Z,102159.63
2023-02-03T03:16:48.385Z,102156.16
2023-02-03T03:18:57.133Z,102164.03
2023-02-03T03:21:06.653Z,102160.63
2023-02-03T03:23:17.846Z,102162.41
2023-02-03T03:25:23.006Z,102154.47
2023-02-03T03:27:32.096Z,102157.06
2023-02-03T03:29:44.297Z,102156.06
2023-02-03T03:31:49.215Z,102161.31
2023-02-03T03:33:54.535Z,102159.50
2023-02-03T03:36:05.034Z,102155.06
2023-02-03T03:38:17.232Z,102157.69
2023-02-03T03:40:25.637Z,102159.38
2023-02-03T03:42:36.382Z,102157.63
2023-02-03T03:44:47.447Z,102169.91
2023-02-03T03:46:57.558Z,102176.00
2023-02-03T03:49:06.640Z,102175.09
2023-02-03T03:51:15.668Z,102179.44
2023-02-03T03:53:21.521Z,102177.63
2023-02-03T03:55:26.642Z,102173.19
2023-02-03T03:57:36.335Z,102176.63
2023-02-03T03:59:46.558Z,102176.56
2023-02-03T04:01:52.843Z,102187.94
2023-02-03T04:04:02.047Z,102180.91
2023-02-03T04:06:08.325Z,102183.47
2023-02-03T04:08:12.196Z,102175.53
2023-02-03T04:10:23.478Z,102177.25
2023-02-03T04:12:27.681Z,102175.47
2023-02-03T04:14:32.606Z,102172.81
2023-02-03T04:16:36.710Z,102179.03
2023-02-03T04:18:40.732Z,102171.97
2023-02-03T04:20:45.163Z,102172.81
2023-02-03T04:22:50.957Z,102171.09
2023-02-03T04:24:55.169Z,102172.81
2023-02-03T04:26:59.588Z,102166.69
2023-02-03T04:29:04.326Z,102165.84
2023-02-03T04:31:08.244Z,102163.22
2023-02-03T04:33:12.532Z,102152.75
2023-02-03T04:35:17.331Z,102156.31
2023-02-03T04:37:23.525Z,102160.81
2023-02-03T04:39:28.850Z,102152.06
2023-02-03T04:41:32.788Z,102154.78
2023-02-03T04:43:36.994Z,102159.28
2023-02-03T04:45:41.546Z,102160.19
2023-02-03T04:47:45.822Z,102164.56
2023-02-03T04:49:49.931Z,102164.59
2023-02-03T04:51:54.146Z,102159.31
2023-02-03T04:53:58.186Z,102166.41
2023-02-03T04:56:04.170Z,102157.63
2023-02-03T04:58:08.270Z,102155.81
2023-02-03T05:00:13.898Z,102160.19
2023-02-03T05:02:18.170Z,102168.06
2023-02-03T05:04:22.272Z,102172.53
2023-02-03T05:06:27.043Z,102176.00
2023-02-03T05:08:31.531Z,102172.47
2023-02-03T05:10:35.755Z,102171.56
2023-02-03T05:12:41.607Z,102170.66
2023-02-03T05:14:45.531Z,102168.94
2023-02-03T05:16:49.621Z,102179.44
2023-02-03T05:18:53.751Z,102177.75
2023-02-03T05:20:57.961Z,102173.38
2023-02-03T05:23:02.570Z,102169.88
2023-02-03T05:25:07.646Z,102175.09
2023-02-03T05:27:11.809Z,102176.00
2023-02-03T05:29:17.414Z,102169.00
2023-02-03T05:31:21.386Z,102183.09
2023-02-03T05:33:25.696Z,102185.78
2023-02-03T05:35:29.945Z,102188.44
2023-02-03T05:37:33.872Z,102188.44
2023-02-03T05:39:37.889Z,102198.09
2023-02-03T05:41:53.665Z,102204.31
2023-02-03T05:43:57.956Z,102199.03
2023-02-03T05:46:04.332Z,102201.72
2023-02-03T05:48:08.920Z,102196.44
2023-02-03T05:50:13.097Z,102204.38
2023-02-03T05:52:18.429Z,102209.72
2023-02-03T05:54:22.946Z,102217.66
2023-02-03T05:56:27.841Z,102220.25
2023-02-03T05:58:31.346Z,102234.38
2023-02-03T06:00:35.734Z,102226.38
2023-02-03T06:02:41.199Z,102230.78
2023-02-03T06:04:45.733Z,102236.06
2023-02-03T06:06:50.006Z,102236.06
2023-02-03T06:08:57.532Z,102238.72
2023-02-03T06:11:01.949Z,102250.19
2023-02-03T06:13:13.915Z,102238.72
2023-02-03T06:15:18.564Z,102240.50
2023-02-03T06:17:22.496Z,102244.91
2023-02-03T06:19:46.382Z,102248.41
2023-02-03T06:21:50.617Z,102248.41
2023-02-03T06:23:55.033Z,102242.25
2023-02-03T06:26:00.549Z,102250.13
2023-02-03T06:28:04.822Z,102255.41
2023-02-03T06:30:10.057Z,102262.44
2023-02-03T06:32:14.316Z,102257.09
2023-02-03T06:34:18.590Z,102259.75
2023-02-03T06:36:24.214Z,102265.88
2023-02-03T06:38:28.491Z,102272.97
2023-02-03T06:40:33.316Z,102272.97
2023-02-03T06:42:37.798Z,102281.78
2023-02-03T06:44:41.934Z,102280.91
2023-02-03T06:46:45.949Z,102280.03
2023-02-03T06:48:49.957Z,102295.91
2023-02-03T06:50:54.063Z,102298.63
2023-02-03T06:52:59.473Z,102308.34
2023-02-03T06:55:03.711Z,102305.84
2023-02-03T06:57:07.615Z,102308.53
2023-02-03T06:59:12.105Z,102310.38
2023-02-03T07:01:16.526Z,102301.63
2023-02-03T07:03:20.446Z,102302.59
2023-02-03T07:05:25.565Z,102281.50
2023-02-03T07:07:30.475Z,102290.41
2023-02-03T07:09:35.553Z,102275.50
2023-02-03T07:11:39.608Z,102277.38
2023-02-03T07:13:44.175Z,102282.78
2023-02-03T07:15:47.946Z,102273.25
2023-02-03T07:17:55.107Z,102283.00
2023-02-03T07:19:59.389Z,102286.63
2023-02-03T07:22:03.996Z,102284.97
2023-02-03T07:24:08.293Z,102286.78
2023-02-03T07:26:14.274Z,102286.84
2023-02-03T07:28:18.763Z,102296.59
2023-02-03T07:30:23.673Z,102300.25
2023-02-03T07:32:27.725Z,102307.31
2023-02-03T07:34:31.777Z,102306.44
2023-02-03T07:36:35.444Z,102317.03
2023-02-03T07:38:40.351Z,102316.16
2023-02-03T07:40:44.210Z,102313.56
2023-02-03T07:42:51.172Z,102318.84
2023-02-03T07:44:55.473Z,102332.97
2023-02-03T07:46:59.793Z,102335.56
2023-02-03T07:49:06.396Z,102348.72
2023-02-03T07:51:10.694Z,102339.94
2023-02-03T07:53:14.571Z,102338.13
2023-02-03T07:55:18.385Z,102351.34
2023-02-03T07:57:22.568Z,102361.03
2023-02-03T07:59:28.111Z,102356.59
2023-02-03T08:01:32.496Z,102369.81
2023-02-03T08:03:36.276Z,102373.31
2023-02-03T08:05:39.717Z,102383.03
2023-02-03T08:07:44.375Z,102382.19
2023-02-03T08:09:53.129Z,102388.34
2023-02-03T08:11:57.090Z,102387.44
2023-02-03T08:14:01.730Z,102398.81
2023-02-03T08:16:09.050Z,102396.09
2023-02-03T08:18:13.051Z,102401.25
2023-02-03T08:20:17.930Z,102395.84
2023-02-03T08:22:22.044Z,102401.03
2023-02-03T08:24:25.701Z,102410.66
2023-02-03T08:26:29.846Z,102400.84
2023-02-03T08:28:34.129Z,102412.19
2023-02-03T08:30:38.159Z,102405.91
2023-02-03T08:32:43.834Z,102407.59
2023-02-03T08:34:54.108Z,102411.06
2023-02-03T08:36:58.488Z,102401.22
2023-02-03T08:39:03.379Z,102401.13
2023-02-03T08:41:11.732Z,102394.75
2023-02-03T08:43:16.637Z,102398.19
2023-02-03T08:45:21.119Z,102392.94
2023-02-03T08:47:25.267Z,102392.94
2023-02-03T08:49:32.381Z,102396.50
2023-02-03T08:51:36.255Z,102403.66
2023-02-03T08:53:40.583Z,102413.34
2023-02-03T08:55:44.576Z,102423.03
2023-02-03T08:57:48.628Z,102427.41
2023-02-03T08:59:53.032Z,102430.91
2023-02-03T09:01:57.350Z,102437.94
2023-02-03T09:04:02.456Z,102447.75
2023-02-03T09:06:12.113Z,102448.59
2023-02-03T09:08:16.749Z,102438.84
2023-02-03T09:10:21.436Z,102446.78
2023-02-03T09:12:25.483Z,102440.59
2023-02-03T09:14:29.810Z,102447.63
2023-02-03T09:16:33.452Z,102445.88
2023-02-03T09:18:37.269Z,102445.88
2023-02-03T09:20:40.798Z,102463.50
2023-02-03T09:22:47.366Z,102465.25
2023-02-03T09:24:51.886Z,102468.69
2023-02-03T09:26:56.095Z,102473.88
2023-02-03T09:29:00.060Z,102484.38
2023-02-03T09:31:05.151Z,102479.81
2023-02-03T09:33:10.297Z,102480.41
2023-02-03T09:35:14.338Z,102488.94
2023-02-03T09:37:18.197Z,102474.66
2023-02-03T09:39:23.281Z,102478.09
2023-02-03T09:41:44.416Z,102481.56
2023-02-03T09:43:54.960Z,102484.25
2023-02-03T09:46:03.238Z,102497.50
2023-02-03T09:48:14.233Z,102490.44
2023-02-03T09:50:22.543Z,102502.75
2023-02-03T09:52:30.027Z,102495.50
2023-02-03T09:54:44.911Z,102495.28
2023-02-03T09:56:52.812Z,102483.78
2023-02-03T09:58:56.713Z,102495.22
2023-02-03T10:01:02.750Z,102498.84
2023-02-03T10:03:13.650Z,102494.53
2023-02-03T10:05:27.324Z,102500.72
2023-02-03T10:07:41.539Z,102492.59
2023-02-03T10:09:57.352Z,102494.84
2023-02-03T10:12:27.078Z,102492.66
2023-02-03T10:14:39.561Z,102500.38
2023-02-03T10:17:03.198Z,102510.69
2023-02-03T10:19:12.973Z,102506.94
2023-02-03T10:21:21.096Z,102511.94
2023-02-03T10:23:31.364Z,102513.50
2023-02-03T10:25:42.472Z,102493.03
2023-02-03T10:27:46.994Z,102506.91
2023-02-03T10:29:57.120Z,102504.06
2023-02-03T10:32:01.050Z,102493.22
2023-02-03T10:34:11.903Z,102494.84
2023-02-03T10:36:22.018Z,102504.53
2023-02-03T10:38:43.055Z,102498.19
2023-02-03T10:40:49.946Z,102493.72
2023-02-03T10:43:12.398Z,102494.63
2023-02-03T10:45:16.293Z,102497.28
2023-02-03T10:47:28.956Z,102504.28
2023-02-03T10:49:33.102Z,102504.28
2023-02-03T10:51:41.530Z,102497.13
2023-02-03T10:53:46.923Z,102500.47
2023-02-03T10:56:01.923Z,102501.25
2023-02-03T10:58:16.703Z,102507.31
2023-02-03T11:00:29.870Z,102500.22
2023-02-03T11:02:34.349Z,102502.06
2023-02-03T11:04:38.594Z,102518.00
2023-02-03T11:06:57.051Z,102516.94
2023-02-03T11:09:01.641Z,102518.59
2023-02-03T11:11:09.963Z,102527.38
2023-02-03T11:13:22.584Z,102517.59
2023-02-03T11:15:27.653Z,102518.41
2023-02-03T11:17:33.706Z,102514.88
2023-02-03T11:19:40.615Z,102520.19
2023-02-03T11:21:48.438Z,102525.34
2023-02-03T11:23:59.837Z,102519.13
2023-02-03T11:26:15.152Z,102519.28
2023-02-03T11:28:22.757Z,102512.22
2023-02-03T11:30:30.568Z,102510.47
2023-02-03T11:32:37.847Z,102519.19
2023-02-03T11:34:43.271Z,102515.63
2023-02-03T11:36:47.320Z,102508.34
2023-02-03T11:38:51.320Z,102515.25
2023-02-03T11:41:01.483Z,102513.53
2023-02-03T11:43:17.628Z,102523.91
2023-02-03T11:45:28.710Z,102525.38
2023-02-03T11:47:32.901Z,102536.78
2023-02-03T11:49:59.378Z,102522.66
2023-02-03T11:52:17.584Z,102534.19
2023-02-03T11:54:33.916Z,102535.16
2023-02-03T11:56:57.362Z,102540.38
2023-02-03T11:59:25.832Z,102550.19
2023-02-03T12:01:52.113Z,102539.84
2023-02-03T12:04:32.971Z,102540.28
2023-02-03T12:07:00.273Z,102539.78
2023-02-03T12:09:14.244Z,102542.44
2023-02-03T12:11:31.367Z,102546.78
2023-02-03T12:14:03.814Z,102540.63
2023-02-03T12:16:23.193Z,102544.03
2023-02-03T12:18:42.370Z,102542.19
2023-02-03T12:21:01.345Z,102537.56
2023-02-03T12:23:15.369Z,102540.34
2023-02-03T12:25:30.541Z,102543.03
2023-02-03T12:27:43.483Z,102537.06
2023-02-03T12:29:53.167Z,102529.09
2023-02-03T12:32:07.563Z,102529.03
2023-02-03T12:34:22.591Z,102520.19
2023-02-03T12:36:30.717Z,102530.81
2023-02-03T12:38:41.051Z,102524.56
2023-02-03T12:40:49.445Z,102524.44
2023-02-03T12:42:58.266Z,102525.94
2023-02-03T12:45:06.049Z,102523.09
2023-02-03T12:47:21.254Z,102519.38
2023-02-03T12:49:36.915Z,102535.38
2023-02-03T12:51:45.508Z,102518.78
2023-02-03T12:53:55.103Z,102531.31
2023-02-03T12:56:05.366Z,102530.56
2023-02-03T12:58:13.627Z,102529.03
2023-02-03T13:00:28.787Z,102526.53
2023-02-03T13:02:42.443Z,102522.25
2023-02-03T13:04:56.874Z,102525.06
2023-02-03T13:07:08.409Z,102534.84
2023-02-03T13:09:23.238Z,102539.44
2023-02-03T13:11:34.059Z,102529.81
2023-02-03T13:13:43.587Z,102534.38
2023-02-03T13:15:50.811Z,102543.28
2023-02-03T13:18:00.255Z,102539.81
2023-02-03T13:20:12.305Z,102536.31
2023-02-03T13:22:18.047Z,102542.41
2023-02-03T13:24:25.173Z,102540.63
2023-02-03T13:27:01.096Z,102546.78
2023-02-03T13:29:19.709Z,102540.50
2023-02-03T13:31:40.653Z,102536.88
2023-02-03T13:34:10.960Z,102545.63
2023-02-03T13:36:47.317Z,102549.22
2023-02-03T13:39:09.702Z,102544.75
2023-02-03T13:41:22.843Z,102549.94
2023-02-03T13:43:38.753Z,102547.19
2023-02-03T13:45:46.850Z,102534.63
2023-02-03T13:47:54.484Z,102538.91
2023-02-03T13:50:03.446Z,102548.41
2023-02-03T13:52:07.161Z,102555.38
2023-02-03T13:54:19.579Z,102543.03
2023-02-03T13:56:29.123Z,102552.78
2023-02-03T13:58:37.047Z,102542.31
2023-02-03T14:01:02.482Z,102547.75
2023-02-03T14:03:16.742Z,102559.41
2023-02-03T14:05:50.057Z,102550.81
2023-02-03T14:07:54.189Z,102553.63
2023-02-03T14:10:23.630Z,102553.75
2023-02-03T14:12:37.709Z,102557.41
2023-02-03T14:14:46.537Z,102554.75
2023-02-03T14:16:54.528Z,102548.53
2023-02-03T14:18:58.659Z,102552.03
2023-02-03T14:21:19.203Z,102556.47
2023-02-03T14:23:28.662Z,102562.72
2023-02-03T14:25:35.475Z,102555.66
2023-02-03T14:27:39.587Z,102563.56
2023-02-03T14:29:43.495Z,102559.13
2023-02-03T14:31:59.598Z,102550.19
2023-02-03T14:34:13.417Z,102550.19
2023-02-03T14:36:35.246Z,102555.50
2023-02-03T14:38:38.867Z,102559.91
2023-02-03T14:40:48.883Z,102556.28
2023-02-03T14:43:13.357Z,102566.00
2023-02-03T14:45:43.659Z,102568.72
2023-02-03T14:47:57.503Z,102563.47
2023-02-03T14:50:16.459Z,102552.94
2023-02-03T14:52:38.976Z,102560.91
2023-02-03T14:55:01.641Z,102565.28
2023-02-03T14:57:21.417Z,102562.47
2023-02-03T14:59:29.567Z,102567.53
2023-02-03T15:02:08.464Z,102562.06
2023-02-03T15:04:25.420Z,102573.47
2023-02-03T15:06:41.191Z,102563.69
2023-02-03T15:08:48.263Z,102569.97
2023-02-03T15:10:52.040Z,102567.38
2023-02-03T15:12:58.406Z,102562.16
2023-02-03T15:15:14.708Z,102566.75
2023-02-03T15:17:25.185Z,102573.09
2023-02-03T15:19:33.431Z,102573.16
2023-02-03T15:21:44.297Z,102574.88
2023-02-03T15:23:52.155Z,102578.22
2023-02-03T15:25:57.870Z,102572.78
2023-02-03T15:28:17.493Z,102575.19
2023-02-03T15:30:27.895Z,102575.06
2023-02-03T15:32:36.063Z,102579.34
2023-02-03T15:34:44.513Z,102582.81
2023-02-03T15:36:52.534Z,102580.09
2023-02-03T15:39:05.053Z,102579.09
2023-02-03T15:41:12.919Z,102580.03
2023-02-03T15:43:21.962Z,102593.44
2023-02-03T15:45:31.989Z,102581.84
2023-02-03T15:47:40.396Z,102589.81
2023-02-03T15:49:45.434Z,102590.78
2023-02-03T15:51:49.565Z,102589.81
2023-02-03T15:54:00.128Z,102583.53
2023-02-03T15:56:06.486Z,102595.88
2023-02-03T15:58:19.218Z,102591.50
2023-02-03T16:00:33.349Z,102586.25
2023-02-03T16:02:43.485Z,102583.59
2023-02-03T16:04:47.588Z,102590.66
2023-02-03T16:06:53.352Z,102584.41
2023-02-03T16:08:59.931Z,102592.38
2023-02-03T16:11:03.616Z,102588.00
2023-02-03T16:13:22.313Z,102586.25
2023-02-03T16:15:27.425Z,102587.16
2023-02-03T16:17:33.417Z,102590.72
2023-02-03T16:19:40.417Z,102588.06
2023-02-03T16:21:54.587Z,102588.97
2023-02-03T16:24:00.640Z,102591.69
2023-02-03T16:26:06.602Z,102588.22
2023-02-03T16:28:35.258Z,102603.28
2023-02-03T16:30:56.672Z,102606.00
2023-02-03T16:33:22.337Z,102603.41
2023-02-03T16:35:43.400Z,102610.56
2023-02-03T16:38:04.121Z,102609.78
2023-02-03T16:40:27.627Z,102609.84
2023-02-03T16:42:57.579Z,102617.81
2023-02-03T16:45:18.620Z,102617.88
2023-02-03T16:47:45.143Z,102619.75
2023-02-03T16:50:06.777Z,102613.56
2023-02-03T16:52:10.604Z,102618.16
2023-02-03T16:54:15.483Z,102611.09
2023-02-03T16:56:20.040Z,102609.41
2023-02-03T16:58:24.464Z,102608.56
2023-02-03T17:00:28.416Z,102618.34
2023-02-03T17:02:32.629Z,102619.28
2023-02-03T17:04:36.900Z,102618.47
2023-02-03T17:06:43.579Z,102622.97
2023-02-03T17:08:47.354Z,102619.53
2023-02-03T17:10:51.593Z,102626.78
2023-02-03T17:12:56.831Z,102623.44
2023-02-03T17:15:00.626Z,102627.25
2023-02-03T17:17:04.556Z,102638.09
2023-02-03T17:19:11.880Z,102634.78
2023-02-03T17:21:17.651Z,102628.00
2023-02-03T17:23:24.313Z,102635.28
2023-02-03T17:25:28.500Z,102631.06
2023-02-03T17:27:32.376Z,102627.75
2023-02-03T17:29:37.970Z,102635.88
2023-02-03T17:31:41.790Z,102633.41
2023-02-03T17:33:46.775Z,102633.56
2023-02-03T17:36:03.285Z,102636.38
2023-02-03T17:38:07.003Z,102636.50
2023-02-03T17:54:20.968Z,102653.34
2023-02-03T17:56:26.996Z,102645.47
2023-02-03T17:58:30.892Z,102652.63
2023-02-03T18:00:36.148Z,102650.09
2023-02-03T18:02:40.556Z,102654.56
2023-02-03T18:04:45.364Z,102663.53
2023-02-03T18:06:49.467Z,102659.25
2023-02-03T18:08:53.519Z,102665.56
2023-02-03T18:10:57.329Z,102669.13
2023-02-03T18:13:02.140Z,102670.06
2023-02-03T18:15:06.478Z,102671.88
2023-02-03T18:17:11.851Z,102668.41
2023-02-03T18:19:19.965Z,102669.31
2023-02-03T18:21:27.914Z,102673.78
2023-02-03T18:23:32.279Z,102671.25
2023-02-03T18:25:37.226Z,102672.31
2023-02-03T18:27:40.836Z,102670.69
2023-02-03T18:29:46.358Z,102678.72
2023-02-03T18:31:50.515Z,102685.78
2023-02-03T18:33:56.411Z,102685.03
2023-02-03T18:36:01.848Z,102686.84
2023-02-03T18:38:05.443Z,102693.94
2023-02-03T18:40:09.747Z,102690.44
2023-02-03T18:42:13.445Z,102694.06
2023-02-03T18:44:17.377Z,102699.44
2023-02-03T18:46:24.298Z,102707.44
2023-02-03T18:48:28.049Z,102702.16
2023-02-03T18:50:33.433Z,102703.88
2023-02-03T18:52:38.257Z,102708.22
2023-02-03T18:54:42.269Z,102705.53
2023-02-03T18:56:48.374Z,102709.81
2023-02-03T18:58:52.929Z,102707.91
2023-02-03T19:00:59.321Z,102714.84
2023-02-03T19:03:03.423Z,102719.19
2023-02-03T19:05:08.817Z,102719.13
2023-02-03T19:07:14.066Z,102723.41
2023-02-03T19:09:19.436Z,102718.91
2023-02-03T19:11:23.877Z,102718.81
2023-02-03T19:13:27.666Z,102718.81
2023-02-03T19:15:31.454Z,102715.25
2023-02-03T19:17:35.575Z,102717.91
2023-02-03T19:19:39.292Z,102717.09
2023-02-03T19:21:43.152Z,102710.91
2023-02-03T19:23:48.382Z,102717.09
2023-02-03T19:25:52.869Z,102720.66
2023-02-03T19:27:56.532Z,102716.28
2023-02-03T19:30:00.392Z,102718.00
2023-02-03T19:32:05.294Z,102715.38
2023-02-03T19:34:09.074Z,102716.22
2023-02-03T19:36:13.001Z,102714.47
2023-02-03T19:38:16.865Z,102718.00
2023-02-03T19:40:22.339Z,102717.97
2023-02-03T19:42:27.294Z,102724.06
2023-02-03T19:44:33.633Z,102722.28
2023-02-03T19:46:38.789Z,102732.84
2023-02-03T19:48:42.546Z,102727.53
2023-02-03T19:50:47.983Z,102727.50
2023-02-03T19:52:51.768Z,102725.69
2023-02-03T19:54:56.358Z,102728.28
2023-02-03T19:57:02.180Z,102728.22
2023-02-03T19:59:05.980Z,102727.31
2023-02-03T20:01:10.388Z,102728.13
2023-02-03T20:03:14.063Z,102737.81
2023-02-03T20:05:18.103Z,102738.66
2023-02-03T20:07:23.448Z,102736.91
2023-02-03T20:09:27.357Z,102746.59
2023-02-03T20:11:30.831Z,102740.44
2023-02-03T20:13:36.095Z,102742.19
2023-02-03T20:15:40.463Z,102746.56
2023-02-03T20:17:44.410Z,102743.91
2023-02-03T20:19:47.908Z,102739.53
2023-02-03T20:21:51.854Z,102744.84
2023-02-03T20:23:56.087Z,102739.53
2023-02-03T20:26:00.316Z,102747.50
2023-02-03T20:28:04.576Z,102749.31
2023-02-03T20:30:11.373Z,102739.63
2023-02-03T20:32:15.869Z,102738.66
2023-02-03T20:34:20.516Z,102734.25
2023-02-03T20:36:24.872Z,102735.91
2023-02-03T20:38:29.250Z,102736.72
2023-02-03T20:40:33.202Z,102743.72
2023-02-03T20:42:37.867Z,102742.72
2023-02-03T20:44:42.390Z,102754.09
2023-02-03T20:46:48.047Z,102749.63
2023-02-03T20:48:51.432Z,102753.97
2023-02-03T20:50:55.099Z,102763.63
2023-02-03T20:52:59.056Z,102746.84
2023-02-03T20:55:02.826Z,102762.69
2023-02-03T20:57:13.226Z,102759.13
2023-02-03T20:59:19.701Z,102755.56
2023-02-03T21:01:24.900Z,102755.56
2023-02-03T21:03:47.640Z,102756.41
2023-02-03T21:05:55.690Z,102764.38
2023-02-03T21:07:59.989Z,102759.06
2023-02-03T21:10:20.836Z,102768.81
2023-02-03T21:12:25.036Z,102760.00
2023-02-03T21:14:31.381Z,102767.97
2023-02-03T21:16:39.432Z,102774.97
2023-02-03T21:18:50.748Z,102775.84
2023-02-03T21:20:54.669Z,102784.72
2023-02-03T21:22:59.499Z,102774.16
2023-02-03T21:25:04.119Z,102788.25
2023-02-03T21:27:24.728Z,102779.41
2023-02-03T21:29:33.126Z,102788.25
2023-02-03T21:31:40.881Z,102783.88
2023-02-03T21:33:46.582Z,102796.28
2023-02-03T21:35:51.802Z,102789.22
2023-02-03T21:37:57.372Z,102793.72
2023-02-03T21:40:01.373Z,102802.59
2023-02-03T21:42:41.353Z,102794.63
2023-02-03T21:44:46.239Z,102795.59
2023-02-03T21:46:49.936Z,102800.03
2023-02-03T21:48:56.376Z,102798.34
2023-02-03T21:51:04.483Z,102792.22
2023-02-03T21:53:26.628Z,102794.06
2023-02-03T21:55:30.652Z,102798.47
2023-02-03T21:57:36.071Z,102806.47
2023-02-03T21:59:48.156Z,102808.31
2023-02-03T22:01:53.509Z,102805.72
2023-02-03T22:04:04.233Z,102806.63
2023-02-03T22:06:29.301Z,102819.97
2023-02-03T22:08:39.014Z,102812.88
2023-02-03T22:10:43.839Z,102817.38
2023-02-03T22:12:48.105Z,102820.91
2023-02-03T22:14:52.657Z,102825.34
2023-02-03T22:16:56.574Z,102825.38
2023-02-03T22:19:02.635Z,102818.38
2023-02-03T22:21:07.232Z,102822.88
2023-02-03T22:23:13.564Z,102832.63
2023-02-03T22:25:18.488Z,102830.03
2023-02-03T22:27:25.580Z,102832.69
2023-02-03T22:29:29.933Z,102840.63
2023-02-03T22:31:35.473Z,102842.44
2023-02-03T22:33:40.771Z,102845.06
2023-02-03T22:35:47.146Z,102844.22
2023-02-03T22:37:52.942Z,102845.97
2023-02-03T22:39:58.994Z,102851.31
2023-02-03T22:42:03.194Z,102845.22
2023-02-03T22:44:07.455Z,102847.94
2023-02-03T22:46:13.401Z,102847.94
2023-02-03T22:48:18.389Z,102843.56
2023-02-03T22:50:34.726Z,102846.22
2023-02-03T22:52:41.908Z,102848.03
2023-02-03T22:54:46.290Z,102852.47
2023-02-03T22:56:50.229Z,102859.53
2023-02-03T22:58:54.093Z,102861.41
2023-02-03T23:00:58.159Z,102859.66
2023-02-03T23:03:03.364Z,102858.78
2023-02-03T23:05:08.661Z,102858.78
2023-02-03T23:07:13.319Z,102859.72
2023-02-03T23:09:18.996Z,102862.41
2023-02-03T23:11:23.351Z,102864.16
2023-02-03T23:13:28.751Z,102868.50
2023-02-03T23:15:33.675Z,102861.47
2023-02-03T23:17:37.711Z,102869.41
2023-02-03T23:19:42.244Z,102868.56
2023-02-03T23:21:46.664Z,102866.72
2023-02-03T23:23:50.795Z,102871.94
2023-02-03T23:25:56.905Z,102863.97
2023-02-03T23:28:01.384Z,102878.91
2023-02-03T23:30:08.932Z,102868.31
2023-02-03T23:32:14.816Z,102873.56
2023-02-03T23:34:36.427Z,102869.13
2023-02-03T23:36:40.810Z,102867.41
2023-02-03T23:38:45.168Z,102868.34
2023-02-03T23:40:50.179Z,102869.31
2023-02-03T23:42:55.179Z,102866.72
2023-02-03T23:44:59.658Z,102862.38
2023-02-03T23:47:03.634Z,102865.91
2023-02-03T23:49:07.987Z,102867.69
2023-02-03T23:51:12.466Z,102860.66
2023-02-03T23:53:16.895Z,102865.06
2023-02-03T23:55:23.826Z,102864.25
2023-02-03T23:57:28.174Z,102862.47
2023-02-03T23:59:34.814Z,102860.72
